SAAR/ROS METAR and TAF weather

Enter ICAO airport designator
Station Type Date Time Source
SAAR METAR 2022/12/04 05:00 UTC NOAA

SAAR 040500Z VRB02KT CAVOK 19/11 Q1008 RMK PP000


Station Type Date Time Source
SAAR Decoded METAR 2022/12/04 05:00 UTC NOAA

Rosario Aerodrome, Argentina (SAAR) 32-55S 060-47W 25M
Dec 04, 2022 - 12:00 AM EST / 2022.12.04 0500 UTC
Wind: Variable at 2 MPH (2 KT):0
Visibility: greater than 7 mile(s):0
Temperature: 66 F (19 C)
Dew Point: 51 F (11 C)
Relative Humidity: 59%
Pressure (altimeter): 29.77 in. Hg (1008 hPa)
ob: SAAR 040500Z VRB02KT CAVOK 19/11 Q1008 RMK PP000
cycle: 5

Station Type Date Time Source
SAAR TAF 2022/12/04 06:09 UTC NOAA

TAF TAF SAAR 040500Z 0406/0506 VRB03KT CAVOK TX36/0419Z TN17/0409Z
BECMG 0417/0419 09010KT
BECMG 0500/0503 09005KT

Example: see airport list